createdAt,value
2018-10-11T00:00:00.744Z,1006.96
2018-10-11T00:01:01.075Z,1006.92
2018-10-11T00:02:00.716Z,1006.91
2018-10-11T00:03:00.702Z,1006.94
2018-10-11T00:04:00.688Z,1006.88
2018-10-11T00:05:00.678Z,1006.90
2018-10-11T00:06:00.673Z,1006.90
2018-10-11T00:07:00.650Z,1006.92
2018-10-11T00:08:00.656Z,1006.88
2018-10-11T00:09:00.623Z,1006.90
2018-10-11T00:10:00.817Z,1006.87
2018-10-11T00:11:00.597Z,1006.87
2018-10-11T00:12:00.586Z,1006.87
2018-10-11T00:13:00.563Z,1006.88
2018-10-11T00:14:00.553Z,1006.85
2018-10-11T00:15:00.536Z,1006.83
2018-10-11T00:16:00.524Z,1006.86
2018-10-11T00:17:00.513Z,1006.87
2018-10-11T00:18:00.532Z,1006.88
2018-10-11T00:19:00.485Z,1006.89
2018-10-11T00:20:00.551Z,1006.88
2018-10-11T00:21:00.453Z,1006.85
2018-10-11T00:22:00.443Z,1006.86
2018-10-11T00:24:00.411Z,1006.86
2018-10-11T00:25:00.396Z,1006.86
2018-10-11T00:26:00.383Z,1006.87
2018-10-11T00:27:00.975Z,1006.90
2018-10-11T00:28:00.354Z,1006.88
2018-10-11T00:29:00.341Z,1006.83
2018-10-11T00:30:00.329Z,1006.83
2018-10-11T00:31:00.312Z,1006.83
2018-10-11T00:32:00.298Z,1006.81
2018-10-11T00:33:00.283Z,1006.82
2018-10-11T00:34:00.271Z,1006.75
2018-10-11T00:35:00.260Z,1006.77
2018-10-11T00:36:00.449Z,1006.74
2018-10-11T00:37:00.241Z,1006.77
2018-10-11T00:38:00.214Z,1006.77
2018-10-11T00:39:00.201Z,1006.77
2018-10-11T00:40:00.190Z,1006.76
2018-10-11T00:41:00.174Z,1006.77
2018-10-11T00:42:00.158Z,1006.73
2018-10-11T00:43:00.143Z,1006.71
2018-10-11T00:44:00.127Z,1006.68
2018-10-11T00:45:00.125Z,1006.71
2018-10-11T00:46:00.427Z,1006.68
2018-10-11T00:47:00.086Z,1006.68
2018-10-11T00:48:00.075Z,1006.67
2018-10-11T00:49:00.057Z,1006.68
2018-10-11T00:50:00.043Z,1006.71
2018-10-11T00:51:00.029Z,1006.74
2018-10-11T00:52:00.016Z,1006.76
2018-10-11T00:53:00.002Z,1006.71
2018-10-11T00:53:59.986Z,1006.72
2018-10-11T00:54:59.973Z,1006.71
2018-10-11T00:55:59.958Z,1006.72
2018-10-11T00:56:59.944Z,1006.64
2018-10-11T00:57:59.927Z,1006.63
2018-10-11T00:58:59.912Z,1006.68
2018-10-11T00:59:59.903Z,1006.66
2018-10-11T01:00:59.884Z,1006.64
2018-10-11T01:01:59.871Z,1006.63
2018-10-11T01:02:59.856Z,1006.61
2018-10-11T01:03:59.843Z,1006.58
2018-10-11T01:04:59.834Z,1006.56
2018-10-11T01:05:59.814Z,1006.53
2018-10-11T01:07:00.012Z,1006.51
2018-10-11T01:07:59.787Z,1006.48
2018-10-11T01:08:59.773Z,1006.43
2018-10-11T01:09:59.835Z,1006.43
2018-10-11T01:10:59.742Z,1006.43
2018-10-11T01:11:59.727Z,1006.42
2018-10-11T01:12:59.717Z,1006.45
2018-10-11T01:13:59.701Z,1006.51
2018-10-11T01:14:59.683Z,1006.57
2018-10-11T01:15:59.671Z,1006.56
2018-10-11T01:16:59.659Z,1006.53
2018-10-11T01:17:59.642Z,1006.52
2018-10-11T01:18:59.664Z,1006.52
2018-10-11T01:19:59.613Z,1006.56
2018-10-11T01:20:59.598Z,1006.54
2018-10-11T01:21:59.584Z,1006.52
2018-10-11T01:22:59.569Z,1006.50
2018-10-11T01:23:59.559Z,1006.48
2018-10-11T01:24:59.540Z,1006.48
2018-10-11T01:25:59.533Z,1006.50
2018-10-11T01:26:59.511Z,1006.48
2018-10-11T01:27:59.500Z,1006.49
2018-10-11T01:28:59.484Z,1006.47
2018-10-11T01:29:59.500Z,1006.43
2018-10-11T01:30:59.454Z,1006.44
2018-10-11T01:31:59.447Z,1006.47
2018-10-11T01:32:59.425Z,1006.47
2018-10-11T01:33:59.413Z,1006.49
2018-10-11T01:34:59.397Z,1006.50
2018-10-11T01:35:59.384Z,1006.43
2018-10-11T01:36:59.368Z,1006.47
2018-10-11T01:37:59.353Z,1006.41
2018-10-11T01:38:59.342Z,1006.39
2018-10-11T01:39:59.325Z,1006.36
2018-10-11T01:40:59.310Z,1006.34
2018-10-11T01:41:59.300Z,1006.34
2018-10-11T01:42:59.291Z,1006.40
2018-10-11T01:43:59.264Z,1006.41
2018-10-11T01:44:59.252Z,1006.39
2018-10-11T01:45:59.235Z,1006.38
2018-10-11T01:46:59.223Z,1006.35
2018-10-11T01:47:59.218Z,1006.36
2018-10-11T01:48:59.192Z,1006.35
2018-10-11T01:49:59.179Z,1006.33
2018-10-11T01:50:59.175Z,1006.34
2018-10-11T01:51:59.147Z,1006.30
2018-10-11T01:52:59.132Z,1006.32
2018-10-11T01:53:59.119Z,1006.32
2018-10-11T01:54:59.106Z,1006.30
2018-10-11T01:55:59.089Z,1006.37
2018-10-11T01:56:59.074Z,1006.38
2018-10-11T01:57:59.060Z,1006.36
2018-10-11T01:58:59.053Z,1006.37
2018-10-11T01:59:59.027Z,1006.35
2018-10-11T02:00:59.017Z,1006.32
2018-10-11T02:01:59.002Z,1006.30
2018-10-11T02:02:58.984Z,1006.35
2018-10-11T02:03:58.972Z,1006.39
2018-10-11T02:04:58.961Z,1006.33
2018-10-11T02:05:58.955Z,1006.34
2018-10-11T02:06:58.923Z,1006.30
2018-10-11T02:07:58.909Z,1006.27
2018-10-11T02:08:58.898Z,1006.23
2018-10-11T02:09:58.882Z,1006.21
2018-10-11T02:10:58.865Z,1006.22
2018-10-11T02:11:58.850Z,1006.17
2018-10-11T02:12:58.835Z,1006.21
2018-10-11T02:13:58.820Z,1006.19
2018-10-11T02:14:58.805Z,1006.15
2018-10-11T02:15:58.797Z,1006.18
2018-10-11T02:16:58.775Z,1006.19
2018-10-11T02:17:58.768Z,1006.19
2018-10-11T02:18:58.745Z,1006.15
2018-10-11T02:19:58.731Z,1006.17
2018-10-11T02:20:58.717Z,1006.14
2018-10-11T02:21:58.702Z,1006.09
2018-10-11T02:22:58.685Z,1006.12
2018-10-11T02:23:58.671Z,1006.11
2018-10-11T02:24:58.659Z,1006.08
2018-10-11T02:25:58.644Z,1006.08
2018-10-11T02:26:58.626Z,1006.04
2018-10-11T02:27:58.610Z,1006.04
2018-10-11T02:28:58.596Z,1006.00
2018-10-11T02:29:58.582Z,1005.94
2018-10-11T02:30:58.566Z,1005.94
2018-10-11T02:31:58.605Z,1005.96
2018-10-11T02:32:58.537Z,1005.95
2018-10-11T02:33:58.521Z,1005.95
2018-10-11T02:34:58.510Z,1005.95
2018-10-11T02:35:58.490Z,1005.98
2018-10-11T02:36:58.476Z,1005.91
2018-10-11T02:37:58.461Z,1005.91
2018-10-11T02:38:58.447Z,1005.87
2018-10-11T02:39:58.436Z,1005.89
2018-10-11T02:40:58.418Z,1005.84
2018-10-11T02:41:58.405Z,1005.82
2018-10-11T02:42:58.389Z,1005.83
2018-10-11T02:43:58.372Z,1005.83
2018-10-11T02:44:58.358Z,1005.79
2018-10-11T02:45:58.344Z,1005.80
2018-10-11T02:46:58.326Z,1005.81
2018-10-11T02:47:58.311Z,1005.83
2018-10-11T02:48:58.305Z,1005.80
2018-10-11T02:49:58.282Z,1005.83
2018-10-11T02:50:58.270Z,1005.86
2018-10-11T02:51:58.253Z,1005.85
2018-10-11T02:52:58.238Z,1005.84
2018-10-11T02:53:58.225Z,1005.82
2018-10-11T02:54:58.208Z,1005.84
2018-10-11T02:55:58.193Z,1005.81
2018-10-11T02:56:58.179Z,1005.84
2018-10-11T02:57:58.168Z,1005.84
2018-10-11T02:58:58.148Z,1005.85
2018-10-11T02:59:58.141Z,1005.84
2018-10-11T03:00:58.120Z,1005.83
2018-10-11T03:01:58.112Z,1005.79
2018-10-11T03:02:58.088Z,1005.79
2018-10-11T03:03:58.074Z,1005.80
2018-10-11T03:04:58.057Z,1005.82
2018-10-11T03:05:58.043Z,1005.86
2018-10-11T03:06:58.034Z,1005.86
2018-10-11T03:07:58.017Z,1005.84
2018-10-11T03:08:57.998Z,1005.84
2018-10-11T03:09:57.982Z,1005.88
2018-10-11T03:10:57.972Z,1005.88
2018-10-11T03:11:57.952Z,1005.85
2018-10-11T03:12:57.938Z,1005.85
2018-10-11T03:13:57.922Z,1005.85
2018-10-11T03:14:57.907Z,1005.86
2018-10-11T03:15:57.895Z,1005.84
2018-10-11T03:16:57.879Z,1005.82
2018-10-11T03:17:57.861Z,1005.82
2018-10-11T03:18:57.847Z,1005.81
2018-10-11T03:19:57.830Z,1005.80
2018-10-11T03:20:57.816Z,1005.80
2018-10-11T03:21:57.802Z,1005.80
2018-10-11T03:22:57.785Z,1005.82
2018-10-11T03:23:57.770Z,1005.77
2018-10-11T03:24:57.757Z,1005.78
2018-10-11T03:25:57.741Z,1005.78
2018-10-11T03:26:57.723Z,1005.73
2018-10-11T03:27:57.710Z,1005.72
2018-10-11T03:28:57.695Z,1005.72
2018-10-11T03:29:57.680Z,1005.70
2018-10-11T03:30:57.665Z,1005.73
2018-10-11T03:31:57.649Z,1005.73
2018-10-11T03:32:57.635Z,1005.75
2018-10-11T03:33:57.618Z,1005.77
2018-10-11T03:34:57.608Z,1005.79
2018-10-11T03:35:57.589Z,1005.84
2018-10-11T03:36:57.575Z,1005.85
2018-10-11T03:37:57.558Z,1005.84
2018-10-11T03:38:57.542Z,1005.85
2018-10-11T03:39:57.532Z,1005.87
2018-10-11T03:40:57.514Z,1005.85
2018-10-11T03:41:57.498Z,1005.83
2018-10-11T03:42:57.481Z,1005.81
2018-10-11T03:43:57.468Z,1005.83
2018-10-11T03:44:57.460Z,1005.82
2018-10-11T03:45:57.443Z,1005.82
2018-10-11T03:46:57.421Z,1005.81
2018-10-11T03:47:57.408Z,1005.77
2018-10-11T03:48:57.390Z,1005.76
2018-10-11T03:49:57.376Z,1005.69
2018-10-11T03:50:57.358Z,1005.69
2018-10-11T03:51:57.345Z,1005.69
2018-10-11T03:52:57.349Z,1005.67
2018-10-11T03:53:57.317Z,1005.65
2018-10-11T03:54:57.298Z,1005.65
2018-10-11T03:55:57.283Z,1005.64
2018-10-11T03:56:57.271Z,1005.67
2018-10-11T03:57:57.253Z,1005.69
2018-10-11T03:58:57.237Z,1005.79
2018-10-11T03:59:57.223Z,1005.76
2018-10-11T04:00:57.208Z,1005.82
2018-10-11T04:01:57.245Z,1005.81
2018-10-11T04:02:57.179Z,1005.81
2018-10-11T04:03:57.161Z,1005.80
2018-10-11T04:04:57.158Z,1005.81
2018-10-11T04:05:57.132Z,1005.84
2018-10-11T04:06:57.114Z,1005.80
2018-10-11T04:07:57.103Z,1005.84
2018-10-11T04:08:57.093Z,1005.84
2018-10-11T04:09:57.072Z,1005.85
2018-10-11T04:10:57.055Z,1005.82
2018-10-11T04:11:57.041Z,1005.79
2018-10-11T04:12:57.027Z,1005.78
2018-10-11T04:13:57.012Z,1005.79
2018-10-11T04:14:57.001Z,1005.81
2018-10-11T04:15:56.976Z,1005.79
2018-10-11T04:16:56.963Z,1005.83
2018-10-11T04:17:56.948Z,1005.85
2018-10-11T04:18:56.933Z,1005.82
2018-10-11T04:19:56.918Z,1005.83
2018-10-11T04:20:56.905Z,1005.86
2018-10-11T04:21:56.886Z,1005.83
2018-10-11T04:22:56.869Z,1005.82
2018-10-11T04:23:56.857Z,1005.78
2018-10-11T04:24:56.846Z,1005.76
2018-10-11T04:25:56.845Z,1005.77
2018-10-11T04:26:56.809Z,1005.69
2018-10-11T04:27:56.796Z,1005.72
2018-10-11T04:28:56.778Z,1005.71
2018-10-11T04:29:56.781Z,1005.69
2018-10-11T04:30:56.748Z,1005.70
2018-10-11T04:31:56.733Z,1005.73
2018-10-11T04:32:56.717Z,1005.68
2018-10-11T04:33:56.700Z,1005.68
2018-10-11T04:34:56.695Z,1005.69
2018-10-11T04:35:56.676Z,1005.71
2018-10-11T04:36:56.652Z,1005.65
2018-10-11T04:37:56.638Z,1005.69
2018-10-11T04:38:56.624Z,1005.65
2018-10-11T04:39:56.613Z,1005.67
2018-10-11T04:40:56.594Z,1005.65
2018-10-11T04:41:56.585Z,1005.60
2018-10-11T04:42:56.640Z,1005.64
2018-10-11T04:43:56.553Z,1005.60
2018-10-11T04:44:56.536Z,1005.57
2018-10-11T04:45:56.513Z,1005.57
2018-10-11T04:46:56.498Z,1005.58
2018-10-11T04:47:56.483Z,1005.65
2018-10-11T04:48:56.466Z,1005.65
2018-10-11T04:49:56.452Z,1005.66
2018-10-11T04:50:56.435Z,1005.69
2018-10-11T04:51:56.422Z,1005.69
2018-10-11T04:52:56.410Z,1005.68
2018-10-11T04:53:56.389Z,1005.66
2018-10-11T04:54:56.374Z,1005.69
2018-10-11T04:55:56.359Z,1005.69
2018-10-11T04:56:56.343Z,1005.70
2018-10-11T04:57:56.327Z,1005.69
2018-10-11T04:58:56.311Z,1005.68
2018-10-11T04:59:56.295Z,1005.68
2018-10-11T05:00:56.279Z,1005.72
2018-10-11T05:01:56.269Z,1005.73
2018-10-11T05:02:56.248Z,1005.75
2018-10-11T05:03:56.231Z,1005.78
2018-10-11T05:04:56.218Z,1005.77
2018-10-11T05:05:56.203Z,1005.76
2018-10-11T05:06:56.186Z,1005.78
2018-10-11T05:07:56.174Z,1005.79
2018-10-11T05:08:56.156Z,1005.76
2018-10-11T05:09:56.141Z,1005.77
2018-10-11T05:10:56.229Z,1005.79
2018-10-11T05:11:56.116Z,1005.75
2018-10-11T05:12:56.092Z,1005.74
2018-10-11T05:13:56.078Z,1005.72
2018-10-11T05:14:56.060Z,1005.74
2018-10-11T05:15:56.046Z,1005.70
2018-10-11T05:16:56.038Z,1005.73
2018-10-11T05:17:56.019Z,1005.76
2018-10-11T05:18:55.999Z,1005.74
2018-10-11T05:19:55.986Z,1005.79
2018-10-11T05:20:55.967Z,1005.79
2018-10-11T05:21:55.953Z,1005.80
2018-10-11T05:22:55.937Z,1005.80
2018-10-11T05:23:55.921Z,1005.82
2018-10-11T05:24:55.904Z,1005.83
2018-10-11T05:25:55.933Z,1005.84
2018-10-11T05:26:55.872Z,1005.89
2018-10-11T05:27:55.859Z,1005.89
2018-10-11T05:28:55.845Z,1005.91
2018-10-11T05:29:55.829Z,1005.95
2018-10-11T05:30:55.811Z,1006.05
2018-10-11T05:31:55.797Z,1006.06
2018-10-11T05:32:55.789Z,1006.11
2018-10-11T05:33:55.765Z,1006.10
2018-10-11T05:34:55.749Z,1006.08
2018-10-11T05:35:55.735Z,1006.11
2018-10-11T05:36:55.724Z,1006.04
2018-10-11T05:37:55.723Z,1006.04
2018-10-11T05:38:55.691Z,1005.99
2018-10-11T05:39:55.674Z,1005.95
2018-10-11T05:40:55.655Z,1005.89
2018-10-11T05:41:55.641Z,1005.92
2018-10-11T05:42:55.628Z,1005.88
2018-10-11T05:43:55.610Z,1005.88
2018-10-11T05:44:55.594Z,1005.88
2018-10-11T05:45:55.578Z,1005.88
2018-10-11T05:46:55.562Z,1005.94
2018-10-11T05:47:55.546Z,1005.93
2018-10-11T05:48:55.531Z,1005.98
2018-10-11T05:49:55.517Z,1006.00
2018-10-11T05:50:55.508Z,1005.97
2018-10-11T05:51:55.483Z,1005.96
2018-10-11T05:52:55.474Z,1005.94
2018-10-11T05:53:55.453Z,1005.95
2018-10-11T05:54:55.435Z,1005.91
2018-10-11T05:55:55.425Z,1005.93
2018-10-11T05:56:55.405Z,1005.92
2018-10-11T05:57:55.394Z,1005.92
2018-10-11T05:58:55.378Z,1005.94
2018-10-11T05:59:55.360Z,1005.92
2018-10-11T06:00:55.349Z,1005.94
2018-10-11T06:01:55.329Z,1005.96
2018-10-11T06:02:55.319Z,1006.00
2018-10-11T06:03:55.298Z,1005.99
2018-10-11T06:04:55.283Z,1006.00
2018-10-11T06:05:55.268Z,1006.02
2018-10-11T06:06:55.253Z,1005.99
2018-10-11T06:07:55.232Z,1005.99
2018-10-11T06:08:55.226Z,1005.98
2018-10-11T06:09:55.207Z,1006.01
2018-10-11T06:10:55.185Z,1005.96
2018-10-11T06:11:55.239Z,1005.98
2018-10-11T06:12:55.160Z,1005.95
2018-10-11T06:13:55.148Z,1005.99
2018-10-11T06:14:55.127Z,1005.99
2018-10-11T06:15:55.111Z,1006.00
2018-10-11T06:16:55.095Z,1006.00
2018-10-11T06:17:55.124Z,1006.01
2018-10-11T06:18:55.063Z,1006.03
2018-10-11T06:19:55.046Z,1006.08
2018-10-11T06:20:55.031Z,1006.08
2018-10-11T06:21:55.021Z,1006.04
2018-10-11T06:22:55.003Z,1006.10
2018-10-11T06:23:54.988Z,1006.11
2018-10-11T06:24:54.986Z,1006.18
2018-10-11T06:25:54.977Z,1006.25
2018-10-11T06:26:54.946Z,1006.22
2018-10-11T06:27:54.933Z,1006.26
2018-10-11T06:28:54.919Z,1006.33
2018-10-11T06:29:54.907Z,1006.36
2018-10-11T06:30:54.893Z,1006.43
2018-10-11T06:31:54.884Z,1006.47
2018-10-11T06:32:54.870Z,1006.49
2018-10-11T06:33:54.859Z,1006.55
2018-10-11T06:34:54.844Z,1006.50
2018-10-11T06:35:54.844Z,1006.49
2018-10-11T06:36:54.831Z,1006.49
2018-10-11T06:37:54.810Z,1006.52
2018-10-11T06:38:54.804Z,1006.56
2018-10-11T06:39:54.800Z,1006.55
2018-10-11T06:40:54.786Z,1006.58
2018-10-11T06:41:54.821Z,1006.63
2018-10-11T06:42:54.760Z,1006.67
2018-10-11T06:43:54.747Z,1006.66
2018-10-11T06:44:54.738Z,1006.71
2018-10-11T06:45:54.729Z,1006.71
2018-10-11T06:46:54.719Z,1006.73
2018-10-11T06:47:54.708Z,1006.70
2018-10-11T06:48:54.701Z,1006.71
2018-10-11T06:49:54.741Z,1006.75
2018-10-11T06:50:54.685Z,1006.81
2018-10-11T06:51:54.680Z,1006.77
2018-10-11T06:52:54.668Z,1006.71
2018-10-11T06:53:54.660Z,1006.79
2018-10-11T06:54:54.660Z,1006.76
2018-10-11T06:55:54.664Z,1006.74
2018-10-11T06:56:54.641Z,1006.74
2018-10-11T06:57:54.631Z,1006.77
2018-10-11T06:58:54.632Z,1006.76
2018-10-11T06:59:54.621Z,1006.75
2018-10-11T07:00:54.644Z,1006.76
2018-10-11T07:01:54.802Z,1006.77
2018-10-11T07:02:54.599Z,1006.78
2018-10-11T07:03:54.595Z,1006.80
2018-10-11T07:04:54.589Z,1006.82
2018-10-11T07:05:54.733Z,1006.79
2018-10-11T07:06:54.581Z,1006.81
2018-10-11T07:07:54.573Z,1006.84
2018-10-11T07:08:54.577Z,1006.87
2018-10-11T07:09:54.566Z,1006.90
2018-10-11T07:10:54.561Z,1006.91
2018-10-11T07:11:54.557Z,1007.00
2018-10-11T07:12:54.552Z,1007.00
2018-10-11T07:13:54.570Z,1007.04
2018-10-11T07:14:54.544Z,1007.07
2018-10-11T07:15:54.545Z,1007.10
2018-10-11T07:16:54.539Z,1007.14
2018-10-11T07:17:54.539Z,1007.11
2018-10-11T07:18:54.548Z,1007.07
2018-10-11T07:19:54.552Z,1007.07
2018-10-11T07:20:54.528Z,1007.10
2018-10-11T07:21:54.525Z,1007.13
2018-10-11T07:22:54.522Z,1007.16
2018-10-11T07:23:54.522Z,1007.18
2018-10-11T07:24:54.519Z,1007.20
2018-10-11T07:25:54.592Z,1007.26
2018-10-11T07:26:54.519Z,1007.28
2018-10-11T07:27:54.664Z,1007.30
2018-10-11T07:28:54.527Z,1007.30
2018-10-11T07:29:54.522Z,1007.33
2018-10-11T07:30:54.515Z,1007.32
2018-10-11T07:31:54.508Z,1007.32
2018-10-11T07:32:54.510Z,1007.35
2018-10-11T07:33:54.513Z,1007.34
2018-10-11T07:34:54.588Z,1007.39
2018-10-11T07:35:54.503Z,1007.41
2018-10-11T07:36:54.507Z,1007.41
2018-10-11T07:37:54.504Z,1007.42
2018-10-11T07:38:54.507Z,1007.47
2018-10-11T07:39:54.506Z,1007.52
2018-10-11T07:40:54.554Z,1007.49
2018-10-11T07:41:54.501Z,1007.53
2018-10-11T07:42:54.510Z,1007.55
2018-10-11T07:43:54.500Z,1007.59
2018-10-11T07:44:54.498Z,1007.61
2018-10-11T07:45:54.502Z,1007.66
2018-10-11T07:46:54.543Z,1007.68
2018-10-11T07:47:54.497Z,1007.73
2018-10-11T07:48:54.498Z,1007.74
2018-10-11T07:49:54.500Z,1007.73
2018-10-11T07:50:54.497Z,1007.73
2018-10-11T07:51:54.500Z,1007.71
2018-10-11T07:52:54.538Z,1007.73
2018-10-11T07:53:54.497Z,1007.76
2018-10-11T07:54:54.497Z,1007.79
2018-10-11T07:55:54.504Z,1007.82
2018-10-11T07:56:54.497Z,1007.85
2018-10-11T07:57:54.503Z,1007.85
2018-10-11T07:58:54.503Z,1007.84
2018-10-11T07:59:54.498Z,1007.83
2018-10-11T08:00:54.505Z,1007.86
2018-10-11T08:01:54.500Z,1007.78
2018-10-11T08:02:54.501Z,1007.82
2018-10-11T08:03:54.500Z,1007.80
2018-10-11T08:04:54.505Z,1007.77
2018-10-11T08:05:54.508Z,1007.76
2018-10-11T08:06:54.513Z,1007.78
2018-10-11T08:07:54.511Z,1007.80
2018-10-11T08:08:54.552Z,1007.81
2018-10-11T08:09:54.514Z,1007.82
2018-10-11T08:10:54.796Z,1007.82
2018-10-11T08:11:54.905Z,1007.78
2018-10-11T08:12:54.528Z,1007.85
2018-10-11T08:13:54.524Z,1007.81
2018-10-11T08:14:54.523Z,1007.83
2018-10-11T08:15:54.562Z,1007.89
2018-10-11T08:16:54.723Z,1007.86
2018-10-11T08:17:54.683Z,1007.83
2018-10-11T08:18:54.660Z,1007.88
2018-10-11T08:19:54.562Z,1007.92
2018-10-11T08:20:54.545Z,1007.94
2018-10-11T08:21:54.540Z,1008.01
2018-10-11T08:22:54.539Z,1007.96
2018-10-11T08:23:54.545Z,1008.01
2018-10-11T08:24:54.694Z,1008.03
2018-10-11T08:25:55.027Z,1008.01
2018-10-11T08:26:54.643Z,1008.03
2018-10-11T08:27:54.559Z,1007.99
2018-10-11T08:28:54.558Z,1008.01
2018-10-11T08:29:54.562Z,1008.01
2018-10-11T08:30:54.563Z,1008.02
2018-10-11T08:31:54.565Z,1008.07
2018-10-11T08:32:54.592Z,1008.11
2018-10-11T08:33:54.568Z,1008.21
2018-10-11T08:34:54.574Z,1008.29
2018-10-11T08:35:54.573Z,1008.29
2018-10-11T08:36:54.576Z,1008.29
2018-10-11T08:37:54.782Z,1008.26
2018-10-11T08:38:54.581Z,1008.26
2018-10-11T08:39:54.584Z,1008.23
2018-10-11T08:40:54.584Z,1008.19
2018-10-11T08:41:54.588Z,1008.26
2018-10-11T08:42:54.591Z,1008.19
2018-10-11T08:43:54.667Z,1008.14
2018-10-11T08:44:54.608Z,1008.14
2018-10-11T08:45:54.609Z,1008.21
2018-10-11T08:46:54.601Z,1008.23
2018-10-11T08:47:54.611Z,1008.18
2018-10-11T08:48:54.607Z,1008.14
2018-10-11T08:49:54.612Z,1008.17
2018-10-11T08:50:54.664Z,1008.17
2018-10-11T08:51:54.617Z,1008.19
2018-10-11T08:52:54.613Z,1008.20
2018-10-11T08:53:54.620Z,1008.22
2018-10-11T08:54:54.613Z,1008.20
2018-10-11T08:55:54.635Z,1008.19
2018-10-11T08:56:54.620Z,1008.20
2018-10-11T08:57:54.619Z,1008.20
2018-10-11T08:58:54.619Z,1008.16
2018-10-11T08:59:54.620Z,1008.18
2018-10-11T09:00:54.623Z,1008.18
2018-10-11T09:01:54.625Z,1008.17
2018-10-11T09:02:54.632Z,1008.20
2018-10-11T09:03:54.813Z,1008.22
2018-10-11T09:04:54.629Z,1008.15
2018-10-11T09:05:54.635Z,1008.16
2018-10-11T09:06:54.633Z,1008.20
2018-10-11T09:07:54.630Z,1008.23
2018-10-11T09:08:54.636Z,1008.23
2018-10-11T09:09:54.638Z,1008.21
2018-10-11T09:10:54.658Z,1008.21
2018-10-11T09:11:54.636Z,1008.19
2018-10-11T09:12:54.648Z,1008.22
2018-10-11T09:13:54.637Z,1008.27
2018-10-11T09:14:54.642Z,1008.15
2018-10-11T09:15:54.638Z,1008.10
2018-10-11T09:16:54.650Z,1008.07
2018-10-11T09:17:54.641Z,1008.01
2018-10-11T09:18:54.640Z,1008.06
2018-10-11T09:19:54.642Z,1008.03
2018-10-11T09:20:54.645Z,1007.92
2018-10-11T09:21:54.646Z,1007.94
2018-10-11T09:22:54.646Z,1008.03
2018-10-11T09:23:54.649Z,1008.11
2018-10-11T09:24:54.653Z,1008.09
2018-10-11T09:25:54.649Z,1008.13
2018-10-11T09:26:54.667Z,1008.13
2018-10-11T09:27:54.650Z,1008.13
2018-10-11T09:28:54.655Z,1008.15
2018-10-11T09:29:54.649Z,1008.14
2018-10-11T09:30:54.648Z,1008.14
2018-10-11T09:31:54.651Z,1008.16
2018-10-11T09:32:54.658Z,1008.20
2018-10-11T09:33:54.648Z,1008.27
2018-10-11T09:34:54.650Z,1008.34
2018-10-11T09:35:54.648Z,1008.29
2018-10-11T09:36:54.647Z,1008.34
2018-10-11T09:37:54.646Z,1008.35
2018-10-11T09:38:54.646Z,1008.40
2018-10-11T09:39:54.649Z,1008.44
2018-10-11T09:40:54.649Z,1008.63
2018-10-11T09:41:54.643Z,1008.71
2018-10-11T09:42:54.704Z,1008.77
2018-10-11T09:43:54.643Z,1008.87
2018-10-11T09:44:54.656Z,1008.99
2018-10-11T09:45:54.651Z,1009.00
2018-10-11T09:46:54.643Z,1008.74
2018-10-11T09:47:54.642Z,1008.20
2018-10-11T09:48:54.760Z,1007.77
2018-10-11T09:49:54.647Z,1007.67
2018-10-11T09:50:54.639Z,1007.70
2018-10-11T09:51:54.646Z,1007.74
2018-10-11T09:52:54.646Z,1007.74
2018-10-11T09:53:54.639Z,1007.76
2018-10-11T09:54:54.691Z,1007.76
2018-10-11T09:55:54.637Z,1007.75
2018-10-11T09:56:54.634Z,1007.79
2018-10-11T09:57:54.632Z,1007.77
2018-10-11T09:58:54.634Z,1007.78
2018-10-11T09:59:54.629Z,1007.78
2018-10-11T10:00:54.630Z,1007.78
2018-10-11T10:01:54.673Z,1007.81
2018-10-11T10:02:54.625Z,1007.79
2018-10-11T10:03:54.631Z,1007.76
2018-10-11T10:04:54.619Z,1007.75
2018-10-11T10:05:54.621Z,1007.72
2018-10-11T10:06:54.621Z,1007.71
2018-10-11T10:07:54.619Z,1007.73
2018-10-11T10:08:54.611Z,1007.72
2018-10-11T10:09:54.684Z,1007.70
2018-10-11T10:10:54.611Z,1007.74
2018-10-11T10:11:54.609Z,1007.71
2018-10-11T10:12:54.612Z,1007.75
2018-10-11T10:13:54.600Z,1007.76
2018-10-11T10:14:54.600Z,1007.74
2018-10-11T10:15:54.599Z,1007.74
2018-10-11T10:16:54.598Z,1007.72
2018-10-11T10:17:54.595Z,1007.69
2018-10-11T10:18:54.594Z,1007.69
2018-10-11T10:19:54.591Z,1007.68
2018-10-11T10:20:54.590Z,1007.66
2018-10-11T10:21:54.588Z,1007.64
2018-10-11T10:22:54.586Z,1007.66
2018-10-11T10:23:54.581Z,1007.64
2018-10-11T10:24:54.607Z,1007.69
2018-10-11T10:25:54.580Z,1007.67
2018-10-11T10:26:54.625Z,1007.66
2018-10-11T10:27:54.575Z,1007.69
2018-10-11T10:28:54.567Z,1007.72
2018-10-11T10:29:54.568Z,1007.66
2018-10-11T10:30:54.559Z,1007.69
2018-10-11T10:31:54.568Z,1007.71
2018-10-11T10:32:54.556Z,1007.70
2018-10-11T10:33:54.578Z,1007.65
2018-10-11T10:34:54.553Z,1007.63
2018-10-11T10:35:54.549Z,1007.64
2018-10-11T10:36:54.555Z,1007.59
2018-10-11T10:37:54.547Z,1007.60
2018-10-11T10:38:54.546Z,1007.58
2018-10-11T10:39:54.618Z,1007.58
2018-10-11T10:40:54.537Z,1007.54
2018-10-11T10:41:54.543Z,1007.47
2018-10-11T10:42:54.532Z,1007.44
2018-10-11T10:43:54.530Z,1007.41
2018-10-11T10:44:54.525Z,1007.41
2018-10-11T10:45:54.524Z,1007.38
2018-10-11T10:46:54.527Z,1007.42
2018-10-11T10:47:54.519Z,1007.42
2018-10-11T10:48:54.584Z,1007.44
2018-10-11T10:49:54.515Z,1007.38
2018-10-11T10:50:54.508Z,1007.38
2018-10-11T10:51:54.518Z,1007.36
2018-10-11T10:52:54.507Z,1007.37
2018-10-11T10:53:54.505Z,1007.35
2018-10-11T10:54:54.507Z,1007.35
2018-10-11T10:55:54.508Z,1007.36
2018-10-11T10:56:54.495Z,1007.36
2018-10-11T10:57:54.496Z,1007.35
2018-10-11T10:58:54.490Z,1007.28
2018-10-11T10:59:54.489Z,1007.28
2018-10-11T11:00:54.492Z,1007.24
2018-10-11T11:01:54.483Z,1007.23
2018-10-11T11:02:54.484Z,1007.25
2018-10-11T11:03:54.473Z,1007.22
2018-10-11T11:04:54.473Z,1007.21
2018-10-11T11:05:54.467Z,1007.22
2018-10-11T11:06:54.466Z,1007.19
2018-10-11T11:07:54.471Z,1007.21
2018-10-11T11:08:54.463Z,1007.18
2018-10-11T11:09:54.456Z,1007.16
2018-10-11T11:10:54.451Z,1007.19
2018-10-11T11:11:54.448Z,1007.18
2018-10-11T11:12:54.449Z,1007.18
2018-10-11T11:13:54.444Z,1007.17
2018-10-11T11:14:54.440Z,1007.14
2018-10-11T11:15:54.436Z,1007.14
2018-10-11T11:16:54.429Z,1007.16
2018-10-11T11:17:54.432Z,1007.13
2018-10-11T11:18:54.462Z,1007.16
2018-10-11T11:19:54.422Z,1007.08
2018-10-11T11:20:54.426Z,1007.11
2018-10-11T11:21:54.418Z,1007.10
2018-10-11T11:22:54.412Z,1007.10
2018-10-11T11:23:54.412Z,1007.08
2018-10-11T11:24:54.407Z,1007.05
2018-10-11T11:25:54.403Z,1007.04
2018-10-11T11:26:54.399Z,1007.06
2018-10-11T11:27:54.544Z,1007.06
2018-10-11T11:28:54.390Z,1007.08
2018-10-11T11:29:54.386Z,1007.08
2018-10-11T11:30:54.418Z,1007.05
2018-10-11T11:31:54.384Z,1007.02
2018-10-11T11:32:54.377Z,1007.04
2018-10-11T11:33:54.375Z,1007.06
2018-10-11T11:34:54.371Z,1007.01
2018-10-11T11:35:54.365Z,1007.02
2018-10-11T11:36:54.366Z,1006.96
2018-10-11T11:37:54.363Z,1007.04
2018-10-11T11:38:54.352Z,1007.02
2018-10-11T11:39:54.373Z,1007.03
2018-10-11T11:40:54.349Z,1006.96
2018-10-11T11:41:54.349Z,1006.96
2018-10-11T11:42:54.341Z,1006.99
2018-10-11T11:43:54.340Z,1006.96
2018-10-11T11:44:54.332Z,1006.93
2018-10-11T11:45:54.414Z,1006.92
2018-10-11T11:46:54.326Z,1006.91
2018-10-11T11:47:54.324Z,1006.92
2018-10-11T11:48:54.320Z,1006.97
2018-10-11T11:49:54.314Z,1006.92
2018-10-11T11:50:54.312Z,1006.93
2018-10-11T11:51:54.315Z,1006.93
2018-10-11T11:52:54.301Z,1006.90
2018-10-11T11:53:54.295Z,1006.89
2018-10-11T11:54:54.291Z,1006.90
2018-10-11T11:55:54.288Z,1006.91
2018-10-11T11:56:54.285Z,1006.90
2018-10-11T11:57:54.356Z,1006.91
2018-10-11T11:58:54.275Z,1006.86
2018-10-11T11:59:54.492Z,1006.84
2018-10-11T12:00:54.269Z,1006.84
2018-10-11T12:01:54.265Z,1006.84
2018-10-11T12:02:54.259Z,1006.82
2018-10-11T12:03:54.257Z,1006.79
2018-10-11T12:04:54.293Z,1006.78
2018-10-11T12:05:54.251Z,1006.74